This is the latest recevied weather packets stored in our database for station/object WX2NJ. If no packets are shown the sender has not sent any weather packets the latest 10 day(s).
| Time | Temp. | Humidity | Pressure | Rain* | Wind** | Luminosity | Snow |
|---|---|---|---|---|---|---|---|
| 1777824680 | 14.44° C | 34% | 1016.1 hPa | 0 mm | - | 322 W/m² | - |
| 1777824378 | 13.33° C | 35% | 1016.3 hPa | 0 mm | - | 221 W/m² | - |
| 1777823770 | 13.33° C | 34% | 1016.2 hPa | 0 mm | - | 223 W/m² | - |
| 1777822862 | 12.78° C | 37% | 1016.4 hPa | 0 mm | - | 213 W/m² | - |
| 1777822559 | 12.22° C | 41% | 1016.6 hPa | 0 mm | - | 164 W/m² | - |
| 1777821954 | 13.33° C | 38% | 1016.4 hPa | 0 mm | - | 177 W/m² | - |
| 1777821652 | 13.33° C | 38% | 1016.3 hPa | 0 mm | - | 328 W/m² | - |
| 1777821350 | 12.22° C | 39% | 1016.7 hPa | 0 mm | - | 257 W/m² | - |
| 1777820743 | 13.33° C | 39% | 1016.4 hPa | 0 mm | - | 273 W/m² | - |
| 1777819834 | 13.89° C | 39% | 1016.5 hPa | 0 mm | - | 265 W/m² | - |
| 1777817713 | 12.78° C | 42% | 1016.4 hPa | 0 mm | - | 143 W/m² | - |
| 1777817410 | 12.78° C | 44% | 1016.5 hPa | 0 mm | - | 221 W/m² | - |
| 1777817106 | 12.22° C | 44% | 1016.6 hPa | 0 mm | - | 181 W/m² | - |
| 1777814379 | 11.67° C | 49% | 1016.2 hPa | 0 mm | - | 218 W/m² | - |
| 1777813471 | 10° C | 54% | 1016.3 hPa | 0 mm | - | 158 W/m² | - |
| 1777810746 | 8.89° C | 57% | 1016 hPa | 0 mm | - | 125 W/m² | - |
| 1777810138 | 8.33° C | 58% | 1015.8 hPa | 0 mm | - | 86 W/m² | - |
| 1777807717 | 7.78° C | 60% | 1015.8 hPa | 0 mm | - | 35 W/m² | - |
| 1777803778 | 6.67° C | 68% | 1014.6 hPa | 0 mm | - | 1 W/m² | - |
| 1777803171 | 6.11° C | 68% | 1014.5 hPa | 0 mm | - | 0 W/m² | - |
| 1777802868 | 6.11° C | 69% | 1014.4 hPa | 0 mm | - | 0 W/m² | - |
| 1777801052 | 5.56° C | 70% | 1013.7 hPa | 0 mm | - | 0 W/m² | - |
| 1777800749 | 5.56° C | 71% | 1013.8 hPa | 0 mm | - | 0 W/m² | - |
| 1777800444 | 5.56° C | 71% | 1013.8 hPa | 0 mm | - | 0 W/m² | - |
| 1777800142 | 5.56° C | 72% | 1013.8 hPa | 0 mm | - | 0 W/m² | - |
* Rain latest hour (hover to see other rain measurements)
** Current wind speed in m/s (hover to see current wind gust speed)